Time;durP1;ratioP1;P1;durP2;ratioP2;P2;SDS_P1;SDS_P2;PMS_P1;PMS_P2;Temp;Humidity;BMP_temperature;BMP_pressure;BME280_temperature;BME280_humidity;BME280_pressure;Samples;Min_cycle;Max_cycle;Signal;HPM_P1;HPM_P2
2022/09/19 00:01:59;;;;;;;;;;;;;;;19.08;50.13;100013.22;2317989;76;50422;-77
2022/09/19 00:05:01;;;;;;;;;;;;;;;19.09;50.13;100015.70;2317678;76;51517;-77
2022/09/19 00:08:02;;;;;;;;;;;;;;;19.10;50.09;100017.87;2279729;77;50211;-77
2022/09/19 00:11:05;;;;;;;;;;;;;;;19.11;50.10;100024.88;2311297;76;49515;-76
2022/09/19 00:14:07;;;;;;;;;;;;;;;19.10;50.09;100021.38;2296767;77;50378;-77
2022/09/19 00:17:09;;;;;;;;;;;;;;;19.10;50.06;100018.69;2296976;77;50322;-77
2022/09/19 00:20:11;;;;;;;;;;;;;;;19.10;50.04;100020.55;2296967;76;51509;-78
2022/09/19 00:26:32;;;;;;;;;;;;;;;19.09;50.07;100022.41;2309478;76;23473;-77
2022/09/19 00:29:34;;;;;;;;;;;;;;;19.08;50.08;100027.44;2311291;76;50334;-77
2022/09/19 00:32:37;;;;;;;;;;;;;;;19.08;50.10;100031.98;2297070;76;51556;-77
2022/09/19 00:35:39;;;;;;;;;;;;;;;19.07;50.13;100027.66;2311126;76;49700;-77
2022/09/19 00:38:41;;;;;;;;;;;;;;;19.06;50.12;100028.19;2297172;77;51513;-77
2022/09/19 00:41:42;;;;;;;;;;;;;;;19.06;50.10;100032.70;2297210;76;51565;-78
2022/09/19 00:44:46;;;;;;;;;;;;;;;19.06;50.12;100033.55;2297111;77;52268;-77
2022/09/19 00:47:48;;;;;;;;;;;;;;;19.04;50.11;100034.25;2297130;77;50424;-77
2022/09/19 00:50:51;;;;;;;;;;;;;;;19.07;50.07;100032.50;2297197;77;50812;-77
2022/09/19 00:53:53;;;;;;;;;;;;;;;19.06;50.11;100040.25;2297165;77;50752;-77
2022/09/19 00:56:55;;;;;;;;;;;;;;;19.05;50.11;100045.28;2297210;76;50373;-77
2022/09/19 00:59:56;;;;;;;;;;;;;;;19.04;50.11;100041.48;2311587;76;50933;-77
2022/09/19 01:02:58;;;;;;;;;;;;;;;19.07;50.03;100042.41;2297217;77;50384;-77
2022/09/19 01:06:11;;;;;;;;;;;;;;;19.05;50.07;100046.63;2297523;76;49989;-77
2022/09/19 01:09:14;;;;;;;;;;;;;;;19.05;50.07;100051.16;2298835;76;50018;-77
2022/09/19 01:12:18;;;;;;;;;;;;;;;19.03;50.09;100044.65;2311587;76;51257;-77
2022/09/19 01:15:21;;;;;;;;;;;;;;;19.04;50.09;100049.52;2297147;77;50776;-77
2022/09/19 01:18:24;;;;;;;;;;;;;;;19.03;50.07;100049.19;2297339;77;50133;-77
2022/09/19 01:21:39;;;;;;;;;;;;;;;19.04;50.05;100050.34;2297284;76;50471;-78
2022/09/19 01:24:46;;;;;;;;;;;;;;;19.04;50.09;100056.22;2285415;77;50988;-77
2022/09/19 01:28:08;;;;;;;;;;;;;;;19.04;50.03;100060.25;2286975;76;51622;-78
2022/09/19 01:31:21;;;;;;;;;;;;;;;19.04;50.03;100059.73;2297425;77;50241;-77
2022/09/19 01:34:33;;;;;;;;;;;;;;;19.03;50.08;100063.94;2297308;77;50708;-78
2022/09/19 01:37:36;;;;;;;;;;;;;;;19.04;50.04;100058.91;2318377;76;50130;-77
2022/09/19 01:40:37;;;;;;;;;;;;;;;19.02;50.08;100065.80;2318977;76;50444;-77
2022/09/19 01:43:39;;;;;;;;;;;;;;;19.02;50.07;100059.61;2318989;76;50372;-77
2022/09/19 01:46:49;;;;;;;;;;;;;;;18.99;50.13;100061.36;2318913;76;51556;-77
2022/09/19 01:49:58;;;;;;;;;;;;;;;18.99;50.11;100066.20;2297014;76;50838;-78
2022/09/19 01:53:05;;;;;;;;;;;;;;;19.01;50.10;100064.16;2318882;76;51456;-77
2022/09/19 01:56:09;;;;;;;;;;;;;;;19.01;50.08;100070.01;2317690;76;50784;-77
2022/09/19 01:59:24;;;;;;;;;;;;;;;19.00;50.10;100072.39;2319058;76;51549;-78
2022/09/19 02:02:33;;;;;;;;;;;;;;;19.01;50.06;100080.73;2297037;76;50831;-77
2022/09/19 02:05:39;;;;;;;;;;;;;;;19.00;50.08;100087.95;2318830;76;22310;-77
2022/09/19 02:08:55;;;;;;;;;;;;;;;19.01;50.07;100083.41;2288097;76;50303;-77
2022/09/19 02:11:59;;;;;;;;;;;;;;;19.01;50.06;100088.77;2287389;78;51563;-77
2022/09/19 02:15:00;;;;;;;;;;;;;;;19.00;50.07;100100.54;2287395;78;22968;-77
2022/09/19 02:18:06;;;;;;;;;;;;;;;19.00;50.04;100095.17;2300958;76;51717;-76
2022/09/19 02:21:15;;;;;;;;;;;;;;;18.97;50.07;100095.06;2287341;78;50313;-77
2022/09/19 02:24:14;;;;;;;;;;;;;;;18.99;50.03;100097.03;2286299;78;23124;-77
2022/09/19 02:27:17;;;;;;;;;;;;;;;18.98;50.05;100096.70;2286979;77;49624;-77
2022/09/19 02:30:20;;;;;;;;;;;;;;;18.98;50.06;100106.09;2260784;78;51562;-77
2022/09/19 02:33:21;;;;;;;;;;;;;;;18.98;50.04;100106.61;2287933;78;51435;-77
2022/09/19 02:36:32;;;;;;;;;;;;;;;18.98;50.03;100103.41;2287056;78;50589;-77
2022/09/19 02:39:39;;;;;;;;;;;;;;;18.98;50.01;100106.09;2217343;78;49765;-78
2022/09/19 02:42:48;;;;;;;;;;;;;;;18.97;50.04;100108.98;2286937;78;51685;-78
2022/09/19 02:45:51;;;;;;;;;;;;;;;18.97;50.05;100113.01;2287102;77;50422;-77
2022/09/19 02:48:54;;;;;;;;;;;;;;;18.97;50.07;100119.70;2293761;76;52498;-76
2022/09/19 02:51:58;;;;;;;;;;;;;;;18.97;50.04;100115.69;2319580;76;50087;-78
2022/09/19 02:55:02;;;;;;;;;;;;;;;18.99;50.01;100121.69;2317566;76;51518;-78
2022/09/19 02:58:04;;;;;;;;;;;;;;;18.98;50.02;100120.02;2313657;76;51524;-78
2022/09/19 03:01:10;;;;;;;;;;;;;;;18.97;50.03;100121.05;2317739;76;50227;-79
2022/09/19 03:04:12;;;;;;;;;;;;;;;18.96;50.01;100124.25;2319503;76;52670;-78
2022/09/19 03:07:15;;;;;;;;;;;;;;;18.98;50.00;100132.08;2317721;76;50783;-78
2022/09/19 03:10:24;;;;;;;;;;;;;;;18.94;50.03;100127.63;2317724;76;52371;-78
2022/09/19 03:13:26;;;;;;;;;;;;;;;18.96;50.00;100136.80;2317504;76;51569;-78
2022/09/19 03:16:34;;;;;;;;;;;;;;;18.96;49.99;100133.63;2277044;76;49682;-78
2022/09/19 03:19:36;;;;;;;;;;;;;;;18.98;49.95;100131.56;2317999;76;23131;-76
2022/09/19 03:22:39;;;;;;;;;;;;;;;18.96;49.99;100133.63;2317700;76;50526;-78
2022/09/19 03:25:40;;;;;;;;;;;;;;;18.96;49.99;100143.50;2317700;76;50302;-78
2022/09/19 03:28:42;;;;;;;;;;;;;;;18.95;50.01;100147.22;2258168;76;49601;-78
2022/09/19 03:31:50;;;;;;;;;;;;;;;18.94;50.00;100146.41;2317859;76;50476;-78
2022/09/19 03:34:50;;;;;;;;;;;;;;;18.95;50.02;100147.22;2317902;76;22377;-76
2022/09/19 03:37:51;;;;;;;;;;;;;;;18.93;50.00;100144.23;2292400;76;50363;-76
2022/09/19 03:40:53;;;;;;;;;;;;;;;18.91;50.04;100148.97;2317794;76;50751;-76
2022/09/19 03:44:00;;;;;;;;;;;;;;;18.94;50.01;100157.12;2319648;76;52669;-76
2022/09/19 03:46:57;;;;;;;;;;;;;;;18.92;50.00;100150.61;2295469;76;21903;-76
2022/09/19 03:49:59;;;;;;;;;;;;;;;18.91;50.00;100155.66;2317854;76;50452;-77
2022/09/19 03:53:01;;;;;;;;;;;;;;;18.92;50.01;100159.17;2292254;76;50224;-76
2022/09/19 03:56:03;;;;;;;;;;;;;;;18.91;50.01;100161.03;2317579;76;50449;-77
2022/09/19 03:59:04;;;;;;;;;;;;;;;18.92;49.99;100158.65;2317804;76;51567;-77
2022/09/19 04:02:06;;;;;;;;;;;;;;;18.94;49.96;100163.83;2317751;76;51476;-76
2022/09/19 04:05:08;;;;;;;;;;;;;;;18.92;49.96;100173.39;2319553;76;50083;-77
2022/09/19 04:08:09;;;;;;;;;;;;;;;18.93;49.92;100166.17;2317854;76;51512;-78
2022/09/19 04:11:12;;;;;;;;;;;;;;;18.93;49.93;100175.56;2292290;76;50383;-77
2022/09/19 04:14:15;;;;;;;;;;;;;;;18.93;49.94;100182.27;2292589;76;51478;-77
2022/09/19 04:17:17;;;;;;;;;;;;;;;18.91;49.96;100183.81;2242419;78;49666;-78
2022/09/19 04:20:18;;;;;;;;;;;;;;;18.91;49.96;100175.77;2286929;77;50071;-78
2022/09/19 04:23:20;;;;;;;;;;;;;;;18.90;49.99;100175.44;2287417;78;51534;-78
2022/09/19 04:26:22;;;;;;;;;;;;;;;18.91;49.96;100182.48;2287580;77;50719;-77
2022/09/19 04:29:25;;;;;;;;;;;;;;;18.90;49.97;100180.80;2235773;78;49645;-78
2022/09/19 04:32:27;;;;;;;;;;;;;;;18.88;50.01;100178.85;2287410;78;52302;-77
2022/09/19 04:35:29;;;;;;;;;;;;;;;18.89;49.97;100183.70;2260160;78;50783;-77
2022/09/19 04:38:30;;;;;;;;;;;;;;;18.89;49.98;100194.42;2287429;78;50758;-77
2022/09/19 04:41:33;;;;;;;;;;;;;;;18.89;49.98;100199.27;2235474;78;50982;-78
2022/09/19 04:44:36;;;;;;;;;;;;;;;18.90;49.98;100206.27;2287433;77;51554;-77
2022/09/19 04:47:38;;;;;;;;;;;;;;;18.90;49.93;100199.56;2263125;76;50704;-78
2022/09/19 04:50:39;;;;;;;;;;;;;;;18.89;49.95;100205.14;2311562;76;50002;-77
2022/09/19 04:53:41;;;;;;;;;;;;;;;18.89;49.97;100203.28;2319895;76;49576;-77
2022/09/19 04:56:46;;;;;;;;;;;;;;;18.89;49.97;100209.16;2317989;76;50646;-77
2022/09/19 04:59:48;;;;;;;;;;;;;;;18.88;49.97;100219.55;2318344;76;50693;-77
2022/09/19 05:02:55;;;;;;;;;;;;;;;18.86;49.99;100219.77;2292901;76;50276;-78
2022/09/19 05:05:53;;;;;;;;;;;;;;;18.86;49.99;100225.64;2292470;76;22255;-77
2022/09/19 05:08:55;;;;;;;;;;;;;;;18.86;49.96;100229.15;2317968;76;50511;-77
2022/09/19 05:11:57;;;;;;;;;;;;;;;18.89;49.91;100229.27;2318084;76;50677;-78
2022/09/19 05:14:59;;;;;;;;;;;;;;;18.88;49.94;100234.30;2317854;76;51542;-77
2022/09/19 05:18:00;;;;;;;;;;;;;;;18.88;49.94;100239.66;2233936;78;49617;-77
2022/09/19 05:21:03;;;;;;;;;;;;;;;18.88;49.96;100239.66;2205954;78;50081;-78
2022/09/19 05:24:05;;;;;;;;;;;;;;;18.85;49.95;100236.03;2267751;78;50392;-77
2022/09/19 05:27:06;;;;;;;;;;;;;;;18.87;49.96;100246.05;2244514;78;51413;-77
2022/09/19 05:30:09;;;;;;;;;;;;;;;18.87;49.93;100249.55;2267899;78;50694;-77
2022/09/19 05:33:11;;;;;;;;;;;;;;;18.85;49.95;100254.28;2243602;78;50759;-78
2022/09/19 05:36:13;;;;;;;;;;;;;;;18.87;49.96;100250.08;2278722;76;50268;-78
2022/09/19 05:39:15;;;;;;;;;;;;;;;18.87;49.93;100257.59;2287308;76;50097;-78
2022/09/19 05:42:16;;;;;;;;;;;;;;;18.86;49.92;100261.31;2318153;76;50151;-77
2022/09/19 05:45:20;;;;;;;;;;;;;;;18.86;49.93;100268.53;2325820;76;51507;-77
2022/09/19 05:48:21;;;;;;;;;;;;;;;18.85;49.91;100265.00;2326246;76;22323;-77
2022/09/19 05:51:23;;;;;;;;;;;;;;;18.87;49.91;100266.98;2291093;76;50394;-77
2022/09/19 05:54:24;;;;;;;;;;;;;;;18.87;49.89;100270.18;2249373;76;50887;-78
2022/09/19 05:57:26;;;;;;;;;;;;;;;18.85;49.92;100270.87;2325782;76;50840;-78
2022/09/19 06:00:27;;;;;;;;;;;;;;;18.85;49.93;100277.06;2291230;76;53617;-77
2022/09/19 06:03:29;;;;;;;;;;;;;;;18.84;49.92;100271.39;2326766;76;51363;-77
2022/09/19 06:06:31;;;;;;;;;;;;;;;18.84;49.95;100287.48;2318165;75;52498;-77
2022/09/19 06:09:32;;;;;;;;;;;;;;;18.84;49.94;100286.66;2264235;77;51418;-78
2022/09/19 06:12:34;;;;;;;;;;;;;;;18.83;49.96;100291.68;2260427;78;50041;-77
2022/09/19 06:15:35;;;;;;;;;;;;;;;18.84;49.93;100295.52;2287864;78;50470;-78
2022/09/19 06:18:37;;;;;;;;;;;;;;;18.83;49.92;100300.58;2235745;78;49637;-78
2022/09/19 06:21:38;;;;;;;;;;;;;;;18.83;49.94;100303.26;2260592;78;50428;-78
2022/09/19 06:24:40;;;;;;;;;;;;;;;18.84;49.93;100302.73;2287881;77;51542;-78
2022/09/19 06:27:44;;;;;;;;;;;;;;;18.84;49.90;100306.24;2287503;78;50837;-78
2022/09/19 06:30:46;;;;;;;;;;;;;;;18.83;49.92;100309.96;2235866;78;52614;-78
2022/09/19 06:33:48;;;;;;;;;;;;;;;18.83;49.92;100311.78;2290506;76;51466;-78
2022/09/19 06:36:51;;;;;;;;;;;;;;;18.83;49.92;100322.02;2293635;76;50327;-78
2022/09/19 06:39:52;;;;;;;;;;;;;;;18.85;49.88;100323.16;2279382;78;51368;-78
2022/09/19 06:43:03;;;;;;;;;;;;;;;18.85;49.87;100324.49;2281401;77;50945;-78
2022/09/19 06:46:04;;;;;;;;;;;;;;;18.84;49.90;100324.19;2255106;78;51649;-79
2022/09/19 06:49:09;;;;;;;;;;;;;;;18.84;49.91;100325.53;2279423;78;50651;-76
2022/09/19 06:52:11;;;;;;;;;;;;;;;18.83;49.92;100327.39;2279356;78;50879;-77
2022/09/19 06:55:12;;;;;;;;;;;;;;;18.83;49.94;100339.93;2221155;78;51233;-76
2022/09/19 06:58:14;;;;;;;;;;;;;;;18.83;49.92;100343.47;2254803;78;50733;-77
2022/09/19 07:01:17;;;;;;;;;;;;;;;18.82;49.92;100351.17;2279216;78;51477;-77
2022/09/19 07:04:19;;;;;;;;;;;;;;;18.83;49.93;100345.30;2283904;76;51512;-77
2022/09/19 07:07:21;;;;;;;;;;;;;;;18.82;49.95;100356.53;2242272;78;50068;-77
2022/09/19 07:10:23;;;;;;;;;;;;;;;18.83;49.91;100358.21;2260275;78;51540;-77
2022/09/19 07:13:25;;;;;;;;;;;;;;;18.82;49.94;100364.58;2287340;78;50590;-77
2022/09/19 07:16:26;;;;;;;;;;;;;;;18.80;49.97;100375.99;2287319;77;50377;-77
2022/09/19 07:19:28;;;;;;;;;;;;;;;18.81;49.97;100368.29;2286704;77;51273;-76
2022/09/19 07:22:29;;;;;;;;;;;;;;;18.80;49.95;100374.66;2260391;78;50774;-77
2022/09/19 07:25:31;;;;;;;;;;;;;;;18.82;49.94;100377.16;2287634;77;51441;-76
2022/09/19 07:28:33;;;;;;;;;;;;;;;18.81;49.95;100384.38;2287667;78;50752;-77
2022/09/19 07:31:34;;;;;;;;;;;;;;;18.82;49.94;100386.53;2235201;78;51300;-77
2022/09/19 07:34:36;;;;;;;;;;;;;;;18.82;49.92;100381.17;2287133;77;50419;-77
2022/09/19 07:37:38;;;;;;;;;;;;;;;18.83;49.92;100386.84;2287181;78;50773;-77
2022/09/19 07:40:40;;;;;;;;;;;;;;;18.83;49.91;100386.36;2286802;77;50499;-77
2022/09/19 07:43:41;;;;;;;;;;;;;;;18.83;49.92;100393.06;2234875;78;50524;-77
2022/09/19 07:47:26;;;;;;;;;;;;;;;18.82;49.96;100399.42;2260067;78;50299;-77
2022/09/19 07:49:46;;;;;;;;;;;;;;;18.82;49.95;100397.26;2287488;77;22396;-77
2022/09/19 07:52:48;;;;;;;;;;;;;;;18.83;49.92;100414.51;2260085;78;51541;-77
2022/09/19 07:55:51;;;;;;;;;;;;;;;18.83;49.93;100414.99;2286401;78;51295;-77
2022/09/19 07:58:53;;;;;;;;;;;;;;;18.83;49.98;100423.03;2289402;78;50209;-77
2022/09/19 08:01:55;;;;;;;;;;;;;;;18.82;49.97;100428.09;2291164;77;50125;-77
2022/09/19 08:04:56;;;;;;;;;;;;;;;18.83;49.93;100423.89;2281799;77;50682;-78
2022/09/19 08:07:58;;;;;;;;;;;;;;;18.82;49.96;100427.57;2251399;78;51643;-78
2022/09/19 08:11:02;;;;;;;;;;;;;;;18.84;49.90;100428.22;2274373;78;51593;-77
2022/09/19 08:14:04;;;;;;;;;;;;;;;18.83;49.97;100441.80;2273848;78;51512;-78
2022/09/19 08:17:05;;;;;;;;;;;;;;;18.83;49.92;100438.63;2274090;77;51489;-77
2022/09/19 08:20:07;;;;;;;;;;;;;;;18.83;49.95;100438.63;2247078;78;51235;-80
2022/09/19 08:23:12;;;;;;;;;;;;;;;18.83;49.96;100444.48;2273692;78;52290;-78
2022/09/19 08:26:14;;;;;;;;;;;;;;;18.84;49.93;100449.66;2273945;78;52018;-78
2022/09/19 08:29:16;;;;;;;;;;;;;;;18.85;49.95;100446.47;2274064;78;51350;-78
2022/09/19 08:32:17;;;;;;;;;;;;;;;18.87;49.89;100451.95;2247075;78;51302;-77
2022/09/19 08:35:19;;;;;;;;;;;;;;;18.87;49.92;100453.30;2273695;78;50439;-78
2022/09/19 08:38:21;;;;;;;;;;;;;;;18.85;49.95;100455.33;2279845;78;50817;-78
2022/09/19 08:41:30;;;;;;;;;;;;;;;18.86;49.96;100458.35;2287365;78;51505;-78
2022/09/19 08:44:39;;;;;;;;;;;;;;;18.87;49.98;100462.68;2260877;77;50968;-77
2022/09/19 08:47:40;;;;;;;;;;;;;;;18.87;49.97;100460.00;2240384;78;51790;-78
2022/09/19 08:50:42;;;;;;;;;;;;;;;18.89;49.97;100466.01;2287464;78;51505;-78
2022/09/19 08:53:45;;;;;;;;;;;;;;;18.87;50.01;100465.36;2259968;78;51362;-78
2022/09/19 08:56:47;;;;;;;;;;;;;;;18.88;49.99;100466.19;2287503;77;50698;-78
2022/09/19 08:59:49;;;;;;;;;;;;;;;18.85;50.09;100470.59;2260509;78;51389;-78
2022/09/19 09:03:01;;;;;;;;;;;;;;;18.87;50.05;100480.11;2287652;77;50309;-78
2022/09/19 09:06:18;;;;;;;;;;;;;;;18.85;50.07;100471.41;2287729;77;50666;-78
2022/09/19 09:09:38;;;;;;;;;;;;;;;18.85;50.10;100475.44;2317217;75;50099;-78
2022/09/19 09:12:41;;;;;;;;;;;;;;;18.87;50.08;100480.63;2314451;77;50521;-77
2022/09/19 09:16:01;;;;;;;;;;;;;;;18.88;50.06;100478.25;2313955;76;50508;-77
2022/09/19 09:19:17;;;;;;;;;;;;;;;18.86;50.08;100481.66;2314941;77;50673;-78
2022/09/19 09:22:21;;;;;;;;;;;;;;;18.89;50.03;100483.44;2314613;76;22968;-77
2022/09/19 09:25:29;;;;;;;;;;;;;;;18.90;50.01;100487.77;2314515;77;51442;-78
2022/09/19 09:28:30;;;;;;;;;;;;;;;18.89;50.03;100482.09;2315062;76;22370;-78
2022/09/19 09:31:33;;;;;;;;;;;;;;;18.88;50.08;100481.78;2309059;76;50831;-78
2022/09/19 09:34:49;;;;;;;;;;;;;;;18.89;50.07;100486.12;2316569;76;51998;-78
2022/09/19 09:38:02;;;;;;;;;;;;;;;18.88;50.08;100483.12;2273785;76;50770;-78
2022/09/19 09:44:44;;;;;;;;;;;;;;;18.87;50.14;100478.77;2251458;79;22347;-78
2022/09/19 09:47:56;;;;;;;;;;;;;;;18.89;50.12;100490.14;2290294;76;22208;-78
2022/09/19 09:51:02;;;;;;;;;;;;;;;18.89;50.14;100488.80;2315645;76;51686;-78
2022/09/19 09:57:45;;;;;;;;;;;;;;;18.88;50.17;100484.95;2301304;77;22351;-78
2022/09/19 10:04:19;;;;;;;;;;;;;;;18.90;50.14;100476.22;2251429;79;22428;-77
2022/09/19 10:07:38;;;;;;;;;;;;;;;18.85;50.21;100488.84;2250970;79;51609;-77
2022/09/19 10:10:40;;;;;;;;;;;;;;;18.87;50.22;100500.22;2251020;79;51565;-77
2022/09/19 10:13:46;;;;;;;;;;;;;;;18.85;50.24;100503.59;2261982;78;50987;-77
2022/09/19 10:16:47;;;;;;;;;;;;;;;18.87;50.20;100520.84;2251386;78;22345;-78
2022/09/19 10:19:50;;;;;;;;;;;;;;;18.86;50.21;100529.39;2251114;79;51534;-77
2022/09/19 10:22:53;;;;;;;;;;;;;;;18.85;50.22;100542.45;2251154;79;50593;-78
2022/09/19 10:25:59;;;;;;;;;;;;;;;18.84;50.24;100516.69;2262108;78;50991;-77
2022/09/19 10:29:01;;;;;;;;;;;;;;;18.84;50.20;100509.98;2251183;79;50675;-77
2022/09/19 10:32:07;;;;;;;;;;;;;;;18.85;50.18;100529.57;2300044;76;50270;-77
2022/09/19 10:35:28;;;;;;;;;;;;;;;18.83;50.21;100555.24;2314996;76;51446;-77
2022/09/19 10:38:30;;;;;;;;;;;;;;;18.82;50.23;100542.02;2318052;76;50198;-79
2022/09/19 10:41:33;;;;;;;;;;;;;;;18.83;50.17;100540.50;2318723;76;51610;-77
2022/09/19 10:44:35;;;;;;;;;;;;;;;18.82;50.18;100535.31;2318387;76;50695;-77
2022/09/19 10:47:36;;;;;;;;;;;;;;;18.80;50.21;100536.83;2317095;77;50137;-77
2022/09/19 10:50:45;;;;;;;;;;;;;;;18.81;50.21;100534.48;2320716;76;51342;-77
2022/09/19 10:53:48;;;;;;;;;;;;;;;18.80;50.19;100532.80;2318297;77;50756;-78
2022/09/19 10:56:50;;;;;;;;;;;;;;;18.81;50.18;100548.41;2315941;77;50766;-77
2022/09/19 10:59:53;;;;;;;;;;;;;;;18.81;50.16;100549.75;2315126;77;50450;-77
2022/09/19 11:02:59;;;;;;;;;;;;;;;18.80;50.17;100546.20;2291229;77;50095;-77
2022/09/19 11:06:10;;;;;;;;;;;;;;;18.79;50.17;100547.23;2293135;77;50840;-77
2022/09/19 11:09:13;;;;;;;;;;;;;;;18.80;50.17;100542.19;2255457;79;50666;-77
2022/09/19 11:12:16;;;;;;;;;;;;;;;18.80;50.16;100537.34;2252602;78;50791;-77
2022/09/19 11:15:18;;;;;;;;;;;;;;;18.80;50.16;100547.55;2237399;79;51051;-77
2022/09/19 11:18:33;;;;;;;;;;;;;;;18.79;50.17;100521.77;2251335;78;50713;-78
2022/09/19 11:21:37;;;;;;;;;;;;;;;18.79;50.17;100528.47;2251779;79;50775;-77
2022/09/19 11:24:58;;;;;;;;;;;;;;;18.80;50.12;100526.11;2254824;78;50467;-77
2022/09/19 11:28:04;;;;;;;;;;;;;;;18.81;50.10;100522.42;2237237;79;50326;-77
2022/09/19 11:31:26;;;;;;;;;;;;;;;18.84;50.07;100530.08;2251160;78;50892;-77
2022/09/19 11:34:32;;;;;;;;;;;;;;;18.84;50.08;100530.08;2250943;79;50785;-77
2022/09/19 11:37:42;;;;;;;;;;;;;;;18.86;50.08;100537.44;2285090;76;50679;-77
2022/09/19 11:40:56;;;;;;;;;;;;;;;18.84;50.11;100538.64;2290420;77;52581;-77
2022/09/19 11:44:14;;;;;;;;;;;;;;;18.85;50.10;100532.25;2314431;77;22306;-77
2022/09/19 11:47:22;;;;;;;;;;;;;;;18.87;50.09;100538.27;2314503;77;51729;-77
2022/09/19 11:50:25;;;;;;;;;;;;;;;18.88;50.08;100527.84;2314632;77;51470;-78
2022/09/19 11:53:32;;;;;;;;;;;;;;;18.87;50.10;100529.70;2290673;77;50139;-78
2022/09/19 11:56:36;;;;;;;;;;;;;;;18.88;50.13;100538.09;2314413;76;51478;-78
2022/09/19 11:59:42;;;;;;;;;;;;;;;18.88;50.09;100534.55;2314581;77;50304;-77
2022/09/19 12:02:49;;;;;;;;;;;;;;;18.88;50.13;100540.77;2313240;76;51548;-77
2022/09/19 12:05:53;;;;;;;;;;;;;;;18.89;50.13;100553.14;2287184;77;52969;-78
2022/09/19 12:09:05;;;;;;;;;;;;;;;18.89;50.13;100538.39;2314042;76;49966;-78
2022/09/19 12:12:11;;;;;;;;;;;;;;;18.90;50.08;100538.70;2315138;77;51556;-78
2022/09/19 12:15:22;;;;;;;;;;;;;;;18.90;50.07;100541.39;2314754;76;51580;-78
2022/09/19 12:18:32;;;;;;;;;;;;;;;18.91;50.10;100543.59;2315582;76;22519;-78
2022/09/19 12:21:35;;;;;;;;;;;;;;;18.83;50.29;100556.58;2291622;77;50959;-77
2022/09/19 12:24:53;;;;;;;;;;;;;;;18.77;50.49;100561.84;2314336;77;50763;-77
2022/09/19 12:27:56;;;;;;;;;;;;;;;18.77;50.48;100573.39;2314569;77;51554;-77
2022/09/19 12:31:02;;;;;;;;;;;;;;;18.78;50.46;100592.50;2299633;76;51499;-77
2022/09/19 12:34:21;;;;;;;;;;;;;;;18.79;50.43;100600.03;2314908;76;22518;-78
2022/09/19 12:37:25;;;;;;;;;;;;;;;18.81;50.38;100609.55;2314630;77;50329;-77
2022/09/19 12:40:31;;;;;;;;;;;;;;;18.81;50.33;100614.91;2281429;76;51519;-77
2022/09/19 12:43:52;;;;;;;;;;;;;;;18.81;50.30;100614.91;2314431;77;50780;-77
2022/09/19 12:47:01;;;;;;;;;;;;;;;18.80;50.33;100601.67;2288627;77;51030;-77
2022/09/19 12:50:05;;;;;;;;;;;;;;;18.82;50.29;100600.98;2295183;76;50481;-77
2022/09/19 12:53:25;;;;;;;;;;;;;;;18.80;50.31;100598.48;2314598;77;50133;-76
2022/09/19 12:56:28;;;;;;;;;;;;;;;18.80;50.34;100603.02;2314461;77;50294;-77
2022/09/19 12:59:33;;;;;;;;;;;;;;;18.79;50.32;100599.52;2290376;77;51425;-78
2022/09/19 13:02:34;;;;;;;;;;;;;;;18.80;50.32;100607.03;2315007;75;22372;-77
2022/09/19 13:05:37;;;;;;;;;;;;;;;18.80;50.26;100594.97;2314681;77;50472;-78
2022/09/19 13:08:53;;;;;;;;;;;;;;;18.79;50.27;100602.19;2281964;77;51617;-77
2022/09/19 13:11:59;;;;;;;;;;;;;;;18.79;50.29;100591.98;2237391;79;50931;-78
2022/09/19 13:15:02;;;;;;;;;;;;;;;18.79;50.27;100584.77;2251109;79;51510;-78
2022/09/19 13:24:47;;;;;;;;;;;;;;;18.79;50.26;100574.05;2289711;76;22348;-77
2022/09/19 13:27:51;;;;;;;;;;;;;;;18.79;50.22;100576.73;2287614;77;50409;-78
2022/09/19 13:30:54;;;;;;;;;;;;;;;18.80;50.20;100577.03;2283272;78;50464;-78
2022/09/19 13:33:58;;;;;;;;;;;;;;;18.80;50.19;100578.38;2280447;78;50400;-78
2022/09/19 13:37:05;;;;;;;;;;;;;;;18.80;50.21;100589.09;2294578;76;51071;-78
2022/09/19 13:40:14;;;;;;;;;;;;;;;18.80;50.22;100594.97;2264209;77;50338;-78
2022/09/19 13:43:19;;;;;;;;;;;;;;;18.80;50.22;100595.80;2267868;78;22029;-76
2022/09/19 13:46:22;;;;;;;;;;;;;;;18.79;50.24;100600.03;2267743;78;51396;-77
2022/09/19 13:49:30;;;;;;;;;;;;;;;18.80;50.27;100605.70;2238987;78;50981;-77
2022/09/19 13:52:35;;;;;;;;;;;;;;;18.78;50.27;100609.92;2267776;78;22467;-77
2022/09/19 13:55:41;;;;;;;;;;;;;;;18.79;50.26;100598.17;2267017;77;22453;-77
2022/09/19 13:58:42;;;;;;;;;;;;;;;18.79;50.22;100594.15;2268145;78;22812;-77
2022/09/19 14:01:45;;;;;;;;;;;;;;;18.78;50.27;100601.88;2244095;78;25029;-77
2022/09/19 14:04:53;;;;;;;;;;;;;;;18.78;50.26;100614.42;2279181;77;50815;-77
2022/09/19 14:07:59;;;;;;;;;;;;;;;18.78;50.28;100613.94;2274304;77;50361;-77
2022/09/19 14:11:00;;;;;;;;;;;;;;;18.76;50.33;100613.29;2251000;79;50784;-77
2022/09/19 14:14:03;;;;;;;;;;;;;;;18.76;50.33;100617.31;2262157;78;49596;-77
2022/09/19 14:17:19;;;;;;;;;;;;;;;18.77;50.32;100616.28;2252467;77;50434;-77
2022/09/19 14:20:39;;;;;;;;;;;;;;;18.74;50.36;100631.37;2250979;79;50392;-77
2022/09/19 14:23:41;;;;;;;;;;;;;;;18.77;50.29;100636.90;2251190;79;50767;-78
2022/09/19 14:26:44;;;;;;;;;;;;;;;18.76;50.30;100637.93;2262221;78;51861;-78
2022/09/19 14:29:49;;;;;;;;;;;;;;;18.75;50.35;100642.44;2251803;77;50781;-77
2022/09/19 14:33:02;;;;;;;;;;;;;;;18.76;50.31;100640.09;2251200;79;51437;-78
2022/09/19 14:36:11;;;;;;;;;;;;;;;18.75;50.28;100642.44;2257068;77;50432;-78
2022/09/19 14:39:30;;;;;;;;;;;;;;;18.76;50.25;100633.39;2237270;79;51839;-78
2022/09/19 14:42:47;;;;;;;;;;;;;;;18.74;50.29;100632.71;2251304;79;51583;-78
2022/09/19 14:46:09;;;;;;;;;;;;;;;18.75;50.29;100643.77;2251425;78;50667;-78
2022/09/19 14:49:13;;;;;;;;;;;;;;;18.75;50.30;100642.44;2251780;77;50283;-78
2022/09/19 14:52:18;;;;;;;;;;;;;;;18.77;50.27;100644.42;2258131;77;49698;-77
2022/09/19 14:55:23;;;;;;;;;;;;;;;18.76;50.30;100645.97;2250960;79;51600;-78
2022/09/19 14:58:27;;;;;;;;;;;;;;;18.74;50.30;100656.83;2318113;76;22373;-78
2022/09/19 15:01:30;;;;;;;;;;;;;;;18.75;50.29;100657.17;2317981;76;51436;-78
2022/09/19 15:04:32;;;;;;;;;;;;;;;18.75;50.30;100657.17;2321750;76;49630;-78
2022/09/19 15:07:34;;;;;;;;;;;;;;;18.74;50.31;100660.03;2317904;76;50329;-78
2022/09/19 15:10:40;;;;;;;;;;;;;;;18.74;50.34;100658.17;2317948;76;51494;-78
2022/09/19 15:13:41;;;;;;;;;;;;;;;18.74;50.35;100657.34;2320312;76;22271;-77
2022/09/19 15:16:42;;;;;;;;;;;;;;;18.73;50.36;100656.52;2285187;76;51411;-77
2022/09/19 15:19:45;;;;;;;;;;;;;;;18.74;50.33;100658.17;2296230;77;52403;-77
2022/09/19 15:22:51;;;;;;;;;;;;;;;18.74;50.30;100660.86;2311416;76;50582;-76
2022/09/19 15:26:04;;;;;;;;;;;;;;;18.73;50.34;100663.22;2297187;77;50281;-77
2022/09/19 15:29:09;;;;;;;;;;;;;;;18.74;50.33;100663.53;2311447;76;51072;-78
2022/09/19 15:32:22;;;;;;;;;;;;;;;18.72;50.36;100655.66;2298381;75;25264;-77
2022/09/19 15:35:21;;;;;;;;;;;;;;;18.74;50.36;100654.66;2313165;76;22409;-77
2022/09/19 15:38:29;;;;;;;;;;;;;;;18.72;50.32;100655.66;2331725;76;50464;-78
2022/09/19 15:41:30;;;;;;;;;;;;;;;18.73;50.34;100659.20;2331769;76;50683;-78
2022/09/19 15:44:32;;;;;;;;;;;;;;;18.74;50.31;100662.19;2331519;75;51506;-78
2022/09/19 15:47:35;;;;;;;;;;;;;;;18.72;50.37;100661.02;2331778;76;50397;-78
2022/09/19 15:50:40;;;;;;;;;;;;;;;18.73;50.32;100665.91;2332037;76;50363;-78
2022/09/19 15:53:42;;;;;;;;;;;;;;;18.73;50.33;100661.88;2333586;76;49604;-77
2022/09/19 15:56:44;;;;;;;;;;;;;;;18.71;50.35;100667.41;2331648;76;51483;-77
2022/09/19 15:59:47;;;;;;;;;;;;;;;18.74;50.31;100667.55;2330810;76;50756;-77
2022/09/19 16:02:51;;;;;;;;;;;;;;;18.71;50.37;100667.92;2288535;76;50686;-77
2022/09/19 16:08:57;;;;;;;;;;;;;;;18.71;50.36;100671.44;2286584;77;49661;-77
2022/09/19 16:09:13;;;;;;;;;;;;;;;18.72;50.37;100669.06;2282178;77;22389;-78